createdAt,value
2022-08-27T00:01:25.320Z,24.50
2022-08-27T00:03:56.335Z,24.50
2022-08-27T00:06:25.392Z,24.40
2022-08-27T00:08:53.909Z,24.40
2022-08-27T00:11:25.314Z,24.40
2022-08-27T00:13:53.183Z,24.30
2022-08-27T00:16:21.274Z,24.20
2022-08-27T00:18:48.891Z,24.20
2022-08-27T00:21:19.124Z,24.20
2022-08-27T00:23:47.272Z,24.20
2022-08-27T00:26:16.362Z,24.30
2022-08-27T00:28:44.165Z,24.40
2022-08-27T00:31:12.585Z,24.40
2022-08-27T00:33:41.114Z,24.50
2022-08-27T00:36:09.642Z,24.50
2022-08-27T00:38:38.602Z,24.60
2022-08-27T00:41:08.756Z,24.60
2022-08-27T00:43:57.988Z,24.70
2022-08-27T00:46:51.256Z,24.60
2022-08-27T00:49:30.224Z,24.60
2022-08-27T00:52:05.533Z,24.50
2022-08-27T00:54:33.654Z,24.50
2022-08-27T00:57:02.557Z,24.50
2022-08-27T00:59:32.799Z,24.50
2022-08-27T01:02:19.121Z,24.60
2022-08-27T01:05:05.686Z,24.60
2022-08-27T01:07:36.938Z,24.70
2022-08-27T01:10:07.746Z,24.70
2022-08-27T01:12:36.193Z,24.70
2022-08-27T01:15:10.069Z,24.70
2022-08-27T01:17:41.215Z,24.70
2022-08-27T01:20:19.250Z,24.70
2022-08-27T01:22:55.675Z,24.70
2022-08-27T01:25:25.268Z,24.60
2022-08-27T01:27:57.336Z,24.60
2022-08-27T01:30:24.938Z,24.60
2022-08-27T01:32:52.924Z,24.60
2022-08-27T01:35:23.348Z,24.50
2022-08-27T01:37:56.977Z,24.50
2022-08-27T01:40:25.727Z,24.40
2022-08-27T01:42:56.846Z,24.40
2022-08-27T01:45:28.114Z,24.40
2022-08-27T01:47:55.879Z,24.40
2022-08-27T01:50:27.162Z,24.40
2022-08-27T01:52:56.225Z,24.30
2022-08-27T01:55:26.351Z,24.30
2022-08-27T01:57:55.094Z,24.30
2022-08-27T02:00:26.904Z,24.20
2022-08-27T02:02:55.222Z,24.20
2022-08-27T02:05:23.259Z,24.20
2022-08-27T02:07:50.849Z,24.30
2022-08-27T02:10:25.567Z,24.20
2022-08-27T02:12:53.365Z,24.20
2022-08-27T02:15:21.213Z,24.20
2022-08-27T02:17:49.768Z,24.20
2022-08-27T02:20:18.633Z,24.20
2022-08-27T02:22:46.247Z,24.30
2022-08-27T02:25:15.481Z,24.30
2022-08-27T02:27:43.938Z,24.30
2022-08-27T02:30:14.889Z,24.30
2022-08-27T02:32:42.374Z,24.40
2022-08-27T02:35:09.981Z,24.40
2022-08-27T02:37:37.977Z,24.40
2022-08-27T02:40:07.737Z,24.40
2022-08-27T02:42:35.243Z,24.40
2022-08-27T02:45:02.903Z,24.40
2022-08-27T02:47:30.397Z,24.40
2022-08-27T02:49:57.933Z,24.50
2022-08-27T02:52:27.654Z,24.50
2022-08-27T02:54:56.206Z,24.50
2022-08-27T02:57:24.058Z,24.50
2022-08-27T02:59:52.970Z,24.40
2022-08-27T03:02:21.230Z,24.40
2022-08-27T03:04:49.703Z,24.40
2022-08-27T03:07:19.520Z,24.40
2022-08-27T03:09:47.001Z,24.40
2022-08-27T03:12:15.828Z,24.40
2022-08-27T03:14:43.430Z,24.40
2022-08-27T03:17:29.798Z,24.40
2022-08-27T03:19:57.277Z,24.40
2022-08-27T03:22:26.153Z,24.50
2022-08-27T03:24:55.520Z,24.50
2022-08-27T03:27:23.005Z,24.50
2022-08-27T03:29:50.460Z,24.40
2022-08-27T03:32:17.924Z,24.40
2022-08-27T03:34:45.402Z,24.30
2022-08-27T03:37:12.959Z,24.20
2022-08-27T03:39:40.553Z,24.10
2022-08-27T03:42:08.056Z,24.10
2022-08-27T03:44:35.577Z,24.20
2022-08-27T03:47:04.186Z,24.20
2022-08-27T03:49:32.405Z,24.20
2022-08-27T03:52:01.555Z,24.20
2022-08-27T03:54:29.037Z,24.30
2022-08-27T03:56:56.474Z,24.30
2022-08-27T03:59:23.950Z,24.40
2022-08-27T04:01:51.482Z,24.40
2022-08-27T04:04:19.067Z,24.40
2022-08-27T04:06:46.538Z,24.40
2022-08-27T04:09:14.077Z,24.40
2022-08-27T04:11:41.552Z,24.40
2022-08-27T04:14:17.368Z,24.40
2022-08-27T04:16:52.504Z,24.40
2022-08-27T04:19:22.844Z,24.40
2022-08-27T04:21:53.025Z,24.40
2022-08-27T04:24:20.565Z,24.40
2022-08-27T04:26:48.052Z,24.40
2022-08-27T04:29:15.954Z,24.40
2022-08-27T04:31:43.625Z,24.40
2022-08-27T04:34:11.230Z,24.40
2022-08-27T04:36:38.685Z,24.40
2022-08-27T04:39:06.374Z,24.50
2022-08-27T04:41:34.372Z,24.40
2022-08-27T04:44:07.690Z,24.40
2022-08-27T04:46:38.654Z,24.30
2022-08-27T04:49:14.603Z,24.20
2022-08-27T04:51:43.439Z,24.20
2022-08-27T04:54:11.013Z,24.30
2022-08-27T04:56:39.277Z,24.40
2022-08-27T04:59:10.204Z,24.40
2022-08-27T05:01:39.567Z,24.50
2022-08-27T05:04:08.171Z,24.60
2022-08-27T05:06:36.890Z,24.60
2022-08-27T05:09:05.659Z,24.70
2022-08-27T05:11:34.740Z,24.80
2022-08-27T05:14:04.531Z,24.90
2022-08-27T05:16:32.170Z,24.90
2022-08-27T05:19:00.033Z,25.10
2022-08-27T05:21:34.828Z,25.20
2022-08-27T05:24:03.930Z,25.30
2022-08-27T05:26:34.345Z,25.30
2022-08-27T05:29:02.965Z,25.30
2022-08-27T05:31:30.523Z,25.30
2022-08-27T05:33:59.889Z,25.40
2022-08-27T05:36:33.697Z,25.60
2022-08-27T05:39:03.480Z,25.70
2022-08-27T05:41:34.105Z,25.90
2022-08-27T05:44:24.048Z,26.10
2022-08-27T05:46:53.663Z,26.20
2022-08-27T05:49:21.589Z,26.30
2022-08-27T05:51:49.021Z,26.30
2022-08-27T05:54:19.584Z,26.40
2022-08-27T05:56:49.445Z,26.40
2022-08-27T05:59:35.604Z,26.60
2022-08-27T06:02:06.153Z,26.70
2022-08-27T06:04:34.304Z,26.80
2022-08-27T06:07:02.278Z,27.00
2022-08-27T06:09:30.327Z,27.20
2022-08-27T06:12:00.161Z,27.50
2022-08-27T06:14:28.510Z,28.40
2022-08-27T06:16:56.682Z,29.50
2022-08-27T06:19:24.382Z,30.70
2022-08-27T06:22:00.177Z,31.20
2022-08-27T06:24:37.138Z,31.60
2022-08-27T06:27:04.775Z,31.80
2022-08-27T06:29:35.064Z,31.80
2022-08-27T06:32:02.789Z,32.10
2022-08-27T06:34:30.250Z,33.10
2022-08-27T06:36:57.681Z,33.70
2022-08-27T06:39:25.125Z,33.30
2022-08-27T06:41:52.992Z,32.40
2022-08-27T06:44:24.385Z,31.80
2022-08-27T06:46:52.237Z,31.20
2022-08-27T06:49:19.705Z,30.80
2022-08-27T06:51:48.128Z,30.50
2022-08-27T06:54:17.203Z,30.00
2022-08-27T06:56:44.823Z,29.60
2022-08-27T06:59:15.624Z,29.30
2022-08-27T07:01:46.279Z,28.80
2022-08-27T07:04:19.686Z,28.50
2022-08-27T07:06:47.463Z,28.30
2022-08-27T07:09:15.339Z,28.30
2022-08-27T07:11:43.790Z,28.40
2022-08-27T07:14:12.996Z,28.30
2022-08-27T07:16:41.142Z,28.00
2022-08-27T07:19:08.632Z,27.90
2022-08-27T07:21:39.929Z,27.70
2022-08-27T07:24:09.137Z,28.10
2022-08-27T07:26:39.843Z,28.70
2022-08-27T07:29:08.619Z,30.00
2022-08-27T07:31:36.535Z,31.00
2022-08-27T07:34:05.759Z,32.20
2022-08-27T07:36:35.275Z,32.30
2022-08-27T07:39:02.818Z,31.60
2022-08-27T07:41:32.164Z,30.90
2022-08-27T07:44:19.233Z,30.50
2022-08-27T07:46:48.728Z,31.40
2022-08-27T07:49:22.183Z,33.20
2022-08-27T07:51:50.851Z,34.80
2022-08-27T07:54:21.280Z,35.60
2022-08-27T07:56:55.097Z,36.20
2022-08-27T07:59:25.074Z,37.20
2022-08-27T08:01:55.244Z,38.00
2022-08-27T08:04:23.461Z,38.30
2022-08-27T08:06:51.699Z,38.30
2022-08-27T08:09:20.232Z,37.50
2022-08-27T08:11:47.986Z,37.40
2022-08-27T08:14:15.468Z,37.10
2022-08-27T08:16:43.267Z,36.70
2022-08-27T08:19:11.333Z,36.20
2022-08-27T08:21:38.874Z,35.80
2022-08-27T08:24:06.661Z,35.50
2022-08-27T08:26:34.372Z,34.60
2022-08-27T08:29:05.016Z,33.80
2022-08-27T08:31:32.970Z,32.90
2022-08-27T08:34:00.840Z,32.10
2022-08-27T08:36:28.345Z,31.50
2022-08-27T08:38:56.022Z,31.00
2022-08-27T08:41:38.494Z,30.30
2022-08-27T08:44:32.753Z,29.90
2022-08-27T08:47:05.942Z,29.40
2022-08-27T08:49:57.696Z,29.00
2022-08-27T08:52:31.369Z,28.90
2022-08-27T08:55:31.708Z,28.60
2022-08-27T08:58:17.253Z,28.30
2022-08-27T09:00:48.892Z,28.10
2022-08-27T09:03:17.018Z,27.80
2022-08-27T09:05:53.743Z,27.40
2022-08-27T09:08:41.114Z,27.00
2022-08-27T09:11:25.924Z,26.60
2022-08-27T09:13:59.843Z,26.30
2022-08-27T09:16:28.149Z,26.00
2022-08-27T09:18:55.892Z,25.70
2022-08-27T09:21:32.614Z,25.40
2022-08-27T09:24:32.715Z,25.30
2022-08-27T09:27:00.444Z,25.00
2022-08-27T09:29:29.604Z,24.80
2022-08-27T09:32:04.065Z,24.60
2022-08-27T09:34:40.696Z,24.40
2022-08-27T09:37:34.250Z,24.20
2022-08-27T09:40:25.877Z,24.10
2022-08-27T09:42:57.454Z,24.00
2022-08-27T09:45:27.808Z,24.00
2022-08-27T09:48:04.472Z,23.80
2022-08-27T09:50:56.053Z,23.50
2022-08-27T09:53:44.957Z,23.50
2022-08-27T09:56:31.654Z,23.40
2022-08-27T09:59:11.061Z,23.30
2022-08-27T10:02:04.580Z,23.40
2022-08-27T10:04:51.044Z,23.20
2022-08-27T10:07:29.197Z,22.90
2022-08-27T10:10:11.355Z,22.60
2022-08-27T10:12:59.123Z,22.20
2022-08-27T10:15:41.867Z,21.80
2022-08-27T10:18:34.668Z,21.80
2022-08-27T10:21:21.059Z,21.70
2022-08-27T10:24:11.655Z,21.70
2022-08-27T10:27:00.866Z,21.60
2022-08-27T10:29:50.078Z,21.60
2022-08-27T10:32:18.071Z,21.50
2022-08-27T10:35:03.352Z,21.50
2022-08-27T10:38:02.970Z,21.50
2022-08-27T10:40:57.594Z,21.60
2022-08-27T10:43:51.022Z,21.60
2022-08-27T10:46:50.626Z,21.70
2022-08-27T10:49:49.286Z,21.70
2022-08-27T10:52:29.266Z,21.80
2022-08-27T10:55:27.682Z,21.70
2022-08-27T10:58:13.671Z,21.70
2022-08-27T11:01:15.105Z,21.60
2022-08-27T11:03:56.582Z,21.60
2022-08-27T11:06:33.784Z,21.60
2022-08-27T11:09:16.754Z,21.70
2022-08-27T11:12:15.101Z,21.70
2022-08-27T11:14:57.473Z,21.60
2022-08-27T11:17:50.565Z,21.60
2022-08-27T11:20:36.031Z,21.60
2022-08-27T11:23:17.444Z,21.50
2022-08-27T11:26:02.372Z,21.20
2022-08-27T11:28:39.618Z,21.10
2022-08-27T11:31:16.183Z,20.90
2022-08-27T11:34:07.872Z,20.80
2022-08-27T11:36:53.296Z,20.50
2022-08-27T11:39:51.114Z,20.30
2022-08-27T11:42:51.739Z,20.10
2022-08-27T11:45:28.532Z,20.00
2022-08-27T11:47:59.178Z,20.00
2022-08-27T11:50:28.146Z,19.90
2022-08-27T11:53:02.401Z,20.00
2022-08-27T11:55:38.808Z,20.00
2022-08-27T11:58:18.381Z,20.00
2022-08-27T12:00:46.981Z,20.00
2022-08-27T12:03:28.804Z,20.10
2022-08-27T12:05:56.329Z,20.10
2022-08-27T12:08:29.728Z,20.20
2022-08-27T12:11:21.852Z,20.20
2022-08-27T12:14:04.527Z,20.20
2022-08-27T12:16:49.693Z,20.20
2022-08-27T12:19:35.775Z,20.20
2022-08-27T12:23:00.381Z,20.10
2022-08-27T12:25:34.173Z,20.00
2022-08-27T12:28:05.535Z,19.80
2022-08-27T12:30:39.258Z,19.80
2022-08-27T12:33:27.294Z,19.80
2022-08-27T12:35:57.920Z,19.80
2022-08-27T12:38:53.081Z,19.90
2022-08-27T12:41:32.109Z,19.80
2022-08-27T12:44:07.832Z,19.80
2022-08-27T12:46:54.870Z,19.90
2022-08-27T12:49:37.120Z,19.90
2022-08-27T12:52:42.090Z,20.00
2022-08-27T12:55:09.673Z,20.10
2022-08-27T12:57:56.429Z,20.20
2022-08-27T13:00:26.655Z,20.40
2022-08-27T13:03:07.660Z,20.50
2022-08-27T13:05:41.226Z,20.70
2022-08-27T13:08:29.478Z,20.80
2022-08-27T13:11:07.007Z,20.90
2022-08-27T13:13:37.926Z,21.10
2022-08-27T13:16:06.385Z,21.20
2022-08-27T13:18:36.355Z,21.40
2022-08-27T13:21:23.856Z,21.50
2022-08-27T13:23:59.469Z,21.50
2022-08-27T13:26:34.033Z,21.60
2022-08-27T13:29:03.690Z,21.80
2022-08-27T13:31:32.956Z,21.90
2022-08-27T13:34:01.159Z,22.00
2022-08-27T13:36:35.896Z,22.10
2022-08-27T13:39:06.235Z,22.30
2022-08-27T13:41:37.077Z,22.30
2022-08-27T13:44:14.538Z,22.40
2022-08-27T13:46:51.018Z,22.50
2022-08-27T13:49:24.602Z,22.70
2022-08-27T13:52:17.865Z,23.00
2022-08-27T13:54:48.699Z,23.20
2022-08-27T13:57:31.338Z,23.40
2022-08-27T14:00:15.653Z,23.60
2022-08-27T14:02:54.166Z,23.70
2022-08-27T14:05:23.506Z,23.90
2022-08-27T14:07:54.471Z,24.00
2022-08-27T14:10:35.642Z,24.20
2022-08-27T14:13:19.920Z,24.20
2022-08-27T14:15:54.303Z,24.30
2022-08-27T14:18:57.294Z,24.40
2022-08-27T14:21:19.381Z,24.60
2022-08-27T14:23:47.090Z,24.70
2022-08-27T14:26:17.444Z,24.80
2022-08-27T14:28:46.462Z,24.90
2022-08-27T14:31:15.261Z,24.90
2022-08-27T14:33:42.971Z,24.90
2022-08-27T14:36:11.643Z,24.80
2022-08-27T14:38:44.231Z,24.80
2022-08-27T14:41:11.833Z,24.80
2022-08-27T14:43:39.383Z,24.90
2022-08-27T14:46:25.508Z,25.00
2022-08-27T14:48:54.817Z,25.10
2022-08-27T14:51:28.154Z,25.10
2022-08-27T14:53:56.864Z,24.90
2022-08-27T14:56:25.314Z,24.90
2022-08-27T14:58:53.815Z,25.00
2022-08-27T15:01:24.079Z,25.10
2022-08-27T15:03:52.185Z,25.10
2022-08-27T15:06:23.912Z,25.00
2022-08-27T15:08:51.654Z,25.00
2022-08-27T15:11:23.623Z,24.90
2022-08-27T15:13:52.790Z,24.90
2022-08-27T15:16:32.593Z,24.90
2022-08-27T15:19:01.487Z,24.70
2022-08-27T15:21:30.610Z,24.70
2022-08-27T15:24:02.769Z,24.70
2022-08-27T15:26:31.202Z,24.70
2022-08-27T15:29:01.755Z,24.80
2022-08-27T15:31:33.581Z,24.80
2022-08-27T15:34:01.170Z,24.90
2022-08-27T15:36:28.731Z,24.90
2022-08-27T15:38:56.344Z,24.90
2022-08-27T15:41:27.277Z,24.90
2022-08-27T15:43:56.906Z,25.00
2022-08-27T15:46:25.636Z,24.70
2022-08-27T15:48:53.465Z,24.80
2022-08-27T15:51:27.778Z,24.90
2022-08-27T15:53:55.908Z,24.80
2022-08-27T15:56:24.083Z,24.90
2022-08-27T15:58:51.977Z,25.10
2022-08-27T16:01:27.409Z,25.30
2022-08-27T16:03:56.085Z,25.40
2022-08-27T16:06:26.887Z,25.40
2022-08-27T16:08:54.621Z,25.40
2022-08-27T16:11:22.916Z,25.40
2022-08-27T16:13:51.651Z,25.40
2022-08-27T16:16:25.278Z,25.40
2022-08-27T16:18:52.958Z,25.40
2022-08-27T16:21:21.009Z,25.40
2022-08-27T16:23:49.271Z,25.40
2022-08-27T16:26:17.215Z,25.50
2022-08-27T16:28:44.943Z,25.50
2022-08-27T16:31:13.680Z,25.50
2022-08-27T16:33:42.901Z,25.50
2022-08-27T16:36:10.697Z,25.50
2022-08-27T16:38:38.263Z,25.50
2022-08-27T16:41:06.398Z,25.50
2022-08-27T16:43:34.395Z,25.40
2022-08-27T16:46:02.116Z,25.30
2022-08-27T16:48:48.252Z,25.30
2022-08-27T16:51:27.190Z,25.30
2022-08-27T16:53:54.791Z,25.30
2022-08-27T16:56:28.401Z,25.30
2022-08-27T16:58:56.581Z,25.30
2022-08-27T17:01:25.215Z,25.30
2022-08-27T17:04:09.640Z,25.20
2022-08-27T17:06:39.666Z,25.10
2022-08-27T17:09:07.449Z,25.00
2022-08-27T17:11:36.270Z,24.90
2022-08-27T17:14:04.539Z,24.80
2022-08-27T17:16:34.730Z,24.70
2022-08-27T17:19:05.420Z,24.70
2022-08-27T17:21:34.800Z,24.60
2022-08-27T17:24:02.851Z,24.50
2022-08-27T17:26:33.288Z,24.40
2022-08-27T17:29:00.970Z,24.30
2022-08-27T17:31:35.759Z,24.10
2022-08-27T17:34:07.041Z,24.00
2022-08-27T17:36:34.869Z,24.00
2022-08-27T17:39:03.123Z,23.90
2022-08-27T17:41:37.890Z,23.80
2022-08-27T17:44:27.156Z,23.80
2022-08-27T17:46:57.644Z,23.70
2022-08-27T17:49:26.747Z,23.60
2022-08-27T17:52:02.242Z,23.50
2022-08-27T17:54:40.640Z,23.50
2022-08-27T17:57:21.078Z,23.40
2022-08-27T17:59:49.817Z,23.30
2022-08-27T18:02:25.110Z,23.30
2022-08-27T18:04:53.956Z,23.30
2022-08-27T18:07:22.209Z,23.20
2022-08-27T18:09:50.466Z,23.20
2022-08-27T18:12:24.249Z,23.10
2022-08-27T18:15:03.466Z,23.00
2022-08-27T18:17:31.542Z,22.90
2022-08-27T18:19:59.318Z,22.90
2022-08-27T18:22:27.831Z,22.80
2022-08-27T18:25:00.336Z,22.70
2022-08-27T18:27:33.058Z,22.70
2022-08-27T18:30:01.818Z,22.70
2022-08-27T18:32:29.511Z,22.60
2022-08-27T18:35:00.455Z,22.60
2022-08-27T18:37:28.123Z,22.60
2022-08-27T18:39:55.700Z,22.60
2022-08-27T18:42:23.465Z,22.60
2022-08-27T18:44:51.131Z,22.50
2022-08-27T18:47:18.734Z,22.50
2022-08-27T18:49:46.449Z,22.50
2022-08-27T18:52:14.026Z,22.50
2022-08-27T18:54:42.911Z,22.50
2022-08-27T18:57:11.300Z,22.50
2022-08-27T18:59:41.067Z,22.50
2022-08-27T19:02:17.379Z,22.50
2022-08-27T19:04:47.141Z,22.40
2022-08-27T19:07:22.476Z,22.50
2022-08-27T19:09:52.410Z,22.40
2022-08-27T19:12:26.111Z,22.40
2022-08-27T19:14:53.699Z,22.40
2022-08-27T19:17:34.456Z,22.30
2022-08-27T19:20:02.829Z,22.30
2022-08-27T19:22:31.743Z,22.20
2022-08-27T19:25:00.018Z,22.20
2022-08-27T19:27:30.047Z,22.20
2022-08-27T19:29:57.811Z,22.20
2022-08-27T19:32:25.790Z,22.10
2022-08-27T19:34:56.842Z,22.10
2022-08-27T19:37:29.144Z,22.10
2022-08-27T19:39:57.626Z,22.00
2022-08-27T19:42:25.396Z,22.00
2022-08-27T19:44:53.256Z,22.00
2022-08-27T19:47:25.777Z,22.00
2022-08-27T19:49:53.881Z,22.00
2022-08-27T19:52:22.053Z,21.90
2022-08-27T19:55:12.669Z,21.90
2022-08-27T19:57:37.667Z,21.90
2022-08-27T20:00:07.485Z,21.90
2022-08-27T20:02:37.245Z,21.90
2022-08-27T20:05:21.832Z,21.90
2022-08-27T20:07:52.065Z,21.90
2022-08-27T20:10:22.901Z,21.90
2022-08-27T20:12:53.620Z,21.90
2022-08-27T20:15:22.911Z,21.90
2022-08-27T20:17:53.039Z,21.80
2022-08-27T20:20:23.538Z,21.80
2022-08-27T20:22:51.765Z,21.80
2022-08-27T20:25:20.019Z,21.80
2022-08-27T20:27:47.831Z,21.80
2022-08-27T20:30:16.875Z,21.80
2022-08-27T20:32:47.425Z,21.80
2022-08-27T20:35:16.261Z,21.80
2022-08-27T20:37:46.225Z,21.90
2022-08-27T20:40:18.424Z,21.90
2022-08-27T20:42:46.104Z,21.80
2022-08-27T20:45:15.150Z,21.80
2022-08-27T20:47:44.783Z,21.80
2022-08-27T20:50:14.229Z,21.80
2022-08-27T20:52:42.771Z,21.80
2022-08-27T20:55:11.563Z,21.80
2022-08-27T20:58:02.081Z,21.80
2022-08-27T21:00:38.780Z,21.80
2022-08-27T21:03:11.659Z,21.80
2022-08-27T21:05:41.747Z,21.80
2022-08-27T21:08:09.443Z,21.90
2022-08-27T21:10:36.974Z,21.90
2022-08-27T21:13:07.337Z,21.90
2022-08-27T21:15:36.612Z,21.90
2022-08-27T21:18:04.273Z,21.90
2022-08-27T21:20:32.578Z,21.90
2022-08-27T21:23:01.096Z,21.90
2022-08-27T21:25:28.960Z,22.00
2022-08-27T21:27:57.791Z,21.90
2022-08-27T21:30:28.186Z,21.90
2022-08-27T21:32:56.673Z,21.90
2022-08-27T21:35:29.135Z,21.90
2022-08-27T21:37:57.090Z,21.90
2022-08-27T21:40:26.456Z,21.90
2022-08-27T21:42:55.208Z,22.00
2022-08-27T21:45:24.200Z,21.90
2022-08-27T21:47:52.028Z,21.90
2022-08-27T21:50:20.654Z,21.90
2022-08-27T21:52:48.630Z,21.90
2022-08-27T21:55:17.119Z,21.90
2022-08-27T21:57:44.805Z,21.90
2022-08-27T22:00:37.919Z,21.90
2022-08-27T22:03:10.323Z,21.90
2022-08-27T22:05:40.467Z,21.80
2022-08-27T22:08:09.882Z,21.80
2022-08-27T22:10:38.996Z,21.70
2022-08-27T22:13:07.382Z,21.70
2022-08-27T22:15:35.190Z,21.70
2022-08-27T22:18:03.721Z,21.70
2022-08-27T22:20:31.653Z,21.70
2022-08-27T22:23:00.437Z,21.70
2022-08-27T22:25:28.456Z,21.60
2022-08-27T22:27:56.220Z,21.60
2022-08-27T22:30:23.865Z,21.70
2022-08-27T22:32:51.482Z,21.70
2022-08-27T22:35:20.555Z,21.70
2022-08-27T22:37:48.488Z,21.70
2022-08-27T22:40:21.441Z,21.70
2022-08-27T22:42:50.211Z,21.70
2022-08-27T22:45:18.957Z,21.60
2022-08-27T22:47:46.897Z,21.60
2022-08-27T22:50:14.855Z,21.60
2022-08-27T22:52:42.613Z,21.50
2022-08-27T22:55:12.671Z,21.60
2022-08-27T22:57:40.486Z,21.50
2022-08-27T23:00:12.285Z,21.50
2022-08-27T23:02:39.919Z,21.50
2022-08-27T23:05:09.133Z,21.50
2022-08-27T23:07:36.771Z,21.50
2022-08-27T23:10:06.840Z,21.50
2022-08-27T23:12:37.768Z,21.50
2022-08-27T23:15:08.279Z,21.50
2022-08-27T23:17:36.341Z,21.50
2022-08-27T23:20:06.663Z,21.50
2022-08-27T23:22:34.778Z,21.50
2022-08-27T23:25:20.987Z,21.40
2022-08-27T23:27:48.574Z,21.40
2022-08-27T23:30:17.121Z,21.40
2022-08-27T23:32:50.222Z,21.40
2022-08-27T23:35:22.660Z,21.40
2022-08-27T23:37:51.445Z,21.40
2022-08-27T23:40:19.971Z,21.40
2022-08-27T23:42:49.440Z,21.40
2022-08-27T23:45:23.286Z,21.40
2022-08-27T23:47:50.934Z,21.40
2022-08-27T23:50:19.203Z,21.40
2022-08-27T23:52:46.847Z,21.50
2022-08-27T23:55:15.834Z,21.50
2022-08-27T23:57:43.839Z,21.50
